LJF weather

Litchfield Municipal Airport
Litchfield, Minnesota, United States

Public forecast

Using degrees Fahrenheit for public forecast. Weather courtesy of forecast.io.

Current aviation weather report (METAR) for Litchfield Municipal Airport

Retrieved 2019/11/19 21:35 UTC (15 minutes ago):

KLJF 192135Z AUTO 30007KT 10SM 05/03 A2987 RMK AO2

Closest aviation forecast (TAF) to Litchfield Municipal Airport

Closest forecast is St Cloud Regional Airport, 32.9 nm (61.0 km) NE. Retrieved 2019/11/19 18:40 UTC (3 hours ago):

TAF KSTC 191738Z 1918/2018 30008KT P6SM SCT010 OVC017 FM192100 29006KT P6SM OVC021 FM200000 28003KT P6SM OVC025 FM200400 VRB02KT 6SM BR OVC025 FM201200 12006KT P6SM OVC035 FM201500 13008KT P6SM OVC060